Time;durP1;ratioP1;P1;durP2;ratioP2;P2;SDS_P1;SDS_P2;PMS_P1;PMS_P2;Temp;Humidity;BMP_temperature;BMP_pressure;BME280_temperature;BME280_humidity;BME280_pressure;Samples;Min_cycle;Max_cycle;Signal;HPM_P1;HPM_P2
2023/07/28 00:02:10;;;;;;;3.70;3.50;;;17.50;99.90;;;;;;5021193;28;20485;-67
2023/07/28 00:04:37;;;;;;;6.43;2.80;;;17.50;99.90;;;;;;5027836;28;20487;-67
2023/07/28 00:07:06;;;;;;;3.00;2.90;;;17.50;99.90;;;;;;5025470;28;20480;-69
2023/07/28 00:09:32;;;;;;;3.43;3.23;;;17.50;99.90;;;;;;5028333;28;20469;-67
2023/07/28 00:11:59;;;;;;;3.30;3.20;;;17.50;99.90;;;;;;5022826;28;20556;-68
2023/07/28 00:14:27;;;;;;;3.20;2.93;;;17.50;99.90;;;;;;5017854;28;20449;-66
2023/07/28 00:16:55;;;;;;;2.30;2.20;;;17.50;99.90;;;;;;5027853;28;20465;-69
2023/07/28 00:19:23;;;;;;;3.20;3.10;;;17.50;99.90;;;;;;5028175;28;20880;-66
2023/07/28 00:21:50;;;;;;;2.40;2.23;;;17.50;99.90;;;;;;5016296;28;20461;-68
2023/07/28 00:24:18;;;;;;;3.13;2.93;;;17.50;99.90;;;;;;5021165;28;20469;-68
2023/07/28 00:26:45;;;;;;;2.43;2.33;;;17.50;99.90;;;;;;5022913;28;20464;-67
2023/07/28 00:29:12;;;;;;;2.13;2.03;;;17.50;99.90;;;;;;5027398;28;20468;-69
2023/07/28 00:31:40;;;;;;;2.43;2.33;;;17.50;99.90;;;;;;5022179;28;20878;-66
2023/07/28 00:34:07;;;;;;;2.30;2.20;;;17.50;99.90;;;;;;5027963;28;20468;-68
2023/07/28 00:36:35;;;;;;;2.40;2.30;;;17.60;99.90;;;;;;5026177;28;20460;-68
2023/07/28 00:39:02;;;;;;;2.43;2.33;;;17.50;99.90;;;;;;5023391;28;20994;-67
2023/07/28 00:41:29;;;;;;;2.43;2.23;;;17.60;99.90;;;;;;5026726;28;20452;-68
2023/07/28 00:43:56;;;;;;;1.97;1.87;;;17.60;99.90;;;;;;5031192;28;20460;-68
2023/07/28 00:46:23;;;;;;;2.20;2.10;;;17.60;99.90;;;;;;5031600;28;20540;-67
2023/07/28 00:48:50;;;;;;;2.43;2.33;;;17.60;99.90;;;;;;5027042;28;20533;-67
2023/07/28 00:51:17;;;;;;;2.97;2.83;;;17.60;99.90;;;;;;5022347;28;20467;-67
2023/07/28 00:53:47;;;;;;;3.20;3.10;;;17.60;99.90;;;;;;5031442;28;20461;-69
2023/07/28 00:56:15;;;;;;;3.67;3.57;;;17.60;99.90;;;;;;5028883;28;20852;-66
2023/07/28 00:58:42;;;;;;;3.40;3.30;;;17.60;99.90;;;;;;5026184;28;20479;-68
2023/07/28 01:01:11;;;;;;;4.10;4.00;;;17.50;99.90;;;;;;5031694;28;20476;-67
2023/07/28 01:03:39;;;;;;;5.03;4.63;;;17.50;99.90;;;;;;5031342;28;20487;-65
2023/07/28 01:06:15;;;;;;;4.17;4.07;;;17.60;99.90;;;;;;5030334;28;20457;-67
2023/07/28 01:08:50;;;;;;;4.40;4.30;;;17.60;99.90;;;;;;5022879;28;20540;-66
2023/07/28 01:11:18;;;;;;;3.90;3.80;;;17.60;99.90;;;;;;5031592;28;20471;-68
2023/07/28 01:13:45;;;;;;;4.50;4.40;;;17.50;99.90;;;;;;5024793;28;20816;-67
2023/07/28 01:16:12;;;;;;;5.47;5.27;;;17.50;99.90;;;;;;5031362;28;20998;-67
2023/07/28 01:18:41;;;;;;;5.90;5.70;;;17.60;99.90;;;;;;5027104;28;20544;-66
2023/07/28 01:21:10;;;;;;;5.20;5.10;;;17.60;99.90;;;;;;5027956;28;20460;-66
2023/07/28 01:23:45;;;;;;;5.50;5.30;;;17.60;99.90;;;;;;5021592;28;20540;-68
2023/07/28 01:26:16;;;;;;;5.63;5.43;;;17.60;99.90;;;;;;5029611;28;20475;-67
2023/07/28 01:28:46;;;;;;;5.80;5.50;;;17.60;99.90;;;;;;5027986;28;20496;-67
2023/07/28 01:31:14;;;;;;;5.87;5.67;;;17.60;99.90;;;;;;5030813;28;20469;-69
2023/07/28 01:33:40;;;;;;;5.63;5.43;;;17.60;99.90;;;;;;5024039;28;20457;-68
2023/07/28 01:36:08;;;;;;;5.63;5.43;;;17.60;99.90;;;;;;5026628;28;20971;-67
2023/07/28 01:38:35;;;;;;;5.17;5.07;;;17.50;99.90;;;;;;5028273;28;20465;-69
2023/07/28 01:41:02;;;;;;;5.23;5.13;;;17.50;99.90;;;;;;5026648;28;20464;-67
2023/07/28 01:43:29;;;;;;;6.13;5.93;;;17.60;99.90;;;;;;5030682;28;20467;-68
2023/07/28 01:45:57;;;;;;;5.07;4.97;;;17.60;99.90;;;;;;5028816;28;20937;-67
2023/07/28 01:48:24;;;;;;;5.80;5.50;;;17.60;99.90;;;;;;5025529;28;21011;-67
2023/07/28 01:50:52;;;;;;;5.10;5.00;;;17.60;99.90;;;;;;5030622;28;20943;-67
2023/07/28 01:53:18;;;;;;;4.87;4.77;;;17.60;99.90;;;;;;5027966;28;20465;-67
2023/07/28 01:55:45;;;;;;;5.13;5.03;;;17.60;99.90;;;;;;5023956;28;20536;-67
2023/07/28 01:58:12;;;;;;;5.10;4.90;;;17.60;99.90;;;;;;5026717;28;20463;-67
2023/07/28 02:00:38;;;;;;;5.00;4.90;;;17.60;99.90;;;;;;5027277;28;20476;-67
2023/07/28 02:03:07;;;;;;;5.17;5.07;;;17.60;99.90;;;;;;5030290;28;20547;-67
2023/07/28 02:05:34;;;;;;;5.30;5.20;;;17.60;99.90;;;;;;5030212;28;20514;-66
2023/07/28 02:08:01;;;;;;;5.17;5.07;;;17.60;99.90;;;;;;5022156;28;20912;-66
2023/07/28 02:10:29;;;;;;;5.23;5.13;;;17.70;99.90;;;;;;5027142;28;20956;-69
2023/07/28 02:12:55;;;;;;;4.50;4.40;;;17.70;99.90;;;;;;5024115;28;20522;-68
2023/07/28 02:15:22;;;;;;;5.40;5.00;;;17.70;99.90;;;;;;5019739;28;20492;-68
2023/07/28 02:17:50;;;;;;;4.80;4.70;;;17.60;99.90;;;;;;5015829;28;20470;-67
2023/07/28 02:20:19;;;;;;;4.57;4.47;;;17.60;99.90;;;;;;5009430;28;20461;-69
2023/07/28 02:22:46;;;;;;;4.83;4.73;;;17.70;99.90;;;;;;5021408;28;20465;-68
2023/07/28 02:25:14;;;;;;;5.43;5.33;;;17.70;99.90;;;;;;5013107;28;20548;-67
2023/07/28 02:27:41;;;;;;;5.37;5.17;;;17.70;99.90;;;;;;5011525;28;20479;-68
2023/07/28 02:30:10;;;;;;;5.77;5.57;;;17.70;99.90;;;;;;5019852;28;20468;-68
2023/07/28 02:32:37;;;;;;;5.37;5.27;;;17.70;99.90;;;;;;5008176;28;20488;-68
2023/07/28 02:35:06;;;;;;;5.40;5.20;;;17.70;99.90;;;;;;5005888;28;20839;-66
2023/07/28 02:37:35;;;;;;;9.23;5.17;;;17.70;99.90;;;;;;5020883;28;20465;-68
2023/07/28 02:40:02;;;;;;;5.10;4.90;;;17.70;99.90;;;;;;5013121;28;20457;-67
2023/07/28 02:42:28;;;;;;;5.37;5.17;;;17.70;99.90;;;;;;5018513;28;20840;-68
2023/07/28 02:44:55;;;;;;;5.40;5.20;;;17.70;99.90;;;;;;5006933;28;20873;-68
2023/07/28 02:47:22;;;;;;;4.93;4.83;;;17.70;99.90;;;;;;5017642;28;20559;-66
2023/07/28 02:49:49;;;;;;;5.57;5.37;;;17.80;99.90;;;;;;5014318;28;20490;-67
2023/07/28 02:52:16;;;;;;;5.27;5.17;;;17.80;99.90;;;;;;5009544;28;20512;-67
2023/07/28 02:54:44;;;;;;;6.27;5.97;;;17.80;99.90;;;;;;5016667;28;20463;-68
2023/07/28 02:57:11;;;;;;;5.27;4.97;;;17.80;99.90;;;;;;5003161;28;20489;-68
2023/07/28 02:59:38;;;;;;;4.87;4.77;;;17.80;99.90;;;;;;5018861;28;20464;-68
2023/07/28 03:02:06;;;;;;;4.90;4.70;;;17.80;99.90;;;;;;5019735;28;20492;-67
2023/07/28 03:04:33;;;;;;;4.97;4.87;;;17.80;99.90;;;;;;5006212;28;21008;-69
2023/07/28 03:07:00;;;;;;;5.53;5.33;;;17.80;99.90;;;;;;5001827;28;20477;-67
2023/07/28 03:09:27;;;;;;;5.23;5.03;;;17.80;99.90;;;;;;5006515;28;20561;-68
2023/07/28 03:11:56;;;;;;;5.97;5.57;;;17.80;99.90;;;;;;5016360;28;20470;-67
2023/07/28 03:14:23;;;;;;;6.00;5.60;;;17.80;99.90;;;;;;4999750;28;20467;-68
2023/07/28 03:16:50;;;;;;;4.77;4.67;;;17.80;99.90;;;;;;5028142;28;20461;-67
2023/07/28 03:19:17;;;;;;;4.80;4.70;;;17.80;99.90;;;;;;5022979;28;21019;-67
2023/07/28 03:21:44;;;;;;;4.50;4.40;;;17.90;99.90;;;;;;5024389;28;20460;-69
2023/07/28 03:24:10;;;;;;;5.07;4.97;;;17.80;99.90;;;;;;5024941;28;20469;-67
2023/07/28 03:26:37;;;;;;;4.80;4.70;;;17.90;99.90;;;;;;5022473;28;20464;-68
2023/07/28 03:29:06;;;;;;;4.80;4.70;;;17.80;99.90;;;;;;5028750;28;20497;-68
2023/07/28 03:31:35;;;;;;;5.23;5.13;;;17.80;99.90;;;;;;5026447;28;20471;-68
2023/07/28 03:34:02;;;;;;;5.47;5.27;;;17.90;99.90;;;;;;5024973;28;20500;-66
2023/07/28 03:36:29;;;;;;;5.27;5.17;;;17.90;99.90;;;;;;5022816;28;20464;-67
2023/07/28 03:38:55;;;;;;;4.90;4.80;;;17.80;99.90;;;;;;5021169;28;20986;-68
2023/07/28 03:41:23;;;;;;;7.10;6.80;;;17.80;99.90;;;;;;5018803;28;20487;-68
2023/07/28 03:43:49;;;;;;;5.00;4.90;;;17.90;99.90;;;;;;5021859;28;20842;-67
2023/07/28 03:46:18;;;;;;;5.07;4.90;;;17.80;99.90;;;;;;5026026;28;20460;-68
2023/07/28 03:48:45;;;;;;;4.80;4.70;;;17.80;99.90;;;;;;5024807;28;20488;-68
2023/07/28 03:51:12;;;;;;;4.70;4.60;;;17.90;99.90;;;;;;5023881;28;20453;-67
2023/07/28 03:53:39;;;;;;;4.80;4.70;;;17.80;99.90;;;;;;5021191;28;20472;-70
2023/07/28 03:56:06;;;;;;;4.93;4.83;;;17.80;99.90;;;;;;5024369;28;20461;-68
2023/07/28 03:58:33;;;;;;;5.30;5.20;;;17.80;99.90;;;;;;5028535;28;20468;-67
2023/07/28 04:01:00;;;;;;;6.00;5.80;;;17.90;99.90;;;;;;5025219;28;20504;-67
2023/07/28 04:03:29;;;;;;;5.20;5.00;;;17.90;99.90;;;;;;5019515;28;20480;-67
2023/07/28 04:05:56;;;;;;;5.30;5.20;;;17.90;99.90;;;;;;5025575;28;21277;-69
2023/07/28 04:08:24;;;;;;;5.47;5.27;;;17.90;99.90;;;;;;5024324;28;20496;-67
2023/07/28 04:10:51;;;;;;;5.37;5.27;;;17.80;99.90;;;;;;5027521;28;20858;-67
2023/07/28 04:13:19;;;;;;;6.70;6.50;;;17.90;99.90;;;;;;5020913;28;20835;-68
2023/07/28 04:15:46;;;;;;;5.23;5.13;;;17.90;99.90;;;;;;5026051;28;20520;-67
2023/07/28 04:18:13;;;;;;;5.73;5.53;;;17.90;99.90;;;;;;5023108;28;20462;-70
2023/07/28 04:20:41;;;;;;;5.90;5.70;;;17.90;99.90;;;;;;5022858;28;20801;-69
2023/07/28 04:23:08;;;;;;;6.20;6.00;;;17.90;99.90;;;;;;5028320;28;20456;-67
2023/07/28 04:25:35;;;;;;;6.03;5.83;;;17.90;99.90;;;;;;5023705;28;20493;-69
2023/07/28 04:28:03;;;;;;;5.70;5.50;;;18.00;99.90;;;;;;5022353;28;20464;-67
2023/07/28 04:30:30;;;;;;;6.10;5.90;;;17.90;99.90;;;;;;5027630;28;20581;-69
2023/07/28 04:32:58;;;;;;;6.10;5.90;;;18.00;99.90;;;;;;5018229;28;20465;-68
2023/07/28 04:35:25;;;;;;;5.90;5.70;;;18.00;99.90;;;;;;5021773;28;20967;-69
2023/07/28 04:37:54;;;;;;;6.63;6.43;;;18.00;99.90;;;;;;5022125;28;20469;-67
2023/07/28 04:40:21;;;;;;;6.20;6.00;;;18.00;99.90;;;;;;5019206;28;20460;-67
2023/07/28 04:42:52;;;;;;;6.07;5.87;;;18.00;99.90;;;;;;5027822;28;20866;-68
2023/07/28 04:45:23;;;;;;;6.50;6.30;;;18.10;99.90;;;;;;5026210;28;20877;-68
2023/07/28 04:47:50;;;;;;;6.03;5.83;;;18.10;99.90;;;;;;5023997;28;20467;-67
2023/07/28 04:50:18;;;;;;;6.33;6.13;;;18.10;99.90;;;;;;5018344;28;20508;-68
2023/07/28 04:52:44;;;;;;;6.40;6.10;;;18.10;99.90;;;;;;5027810;28;20465;-68
2023/07/28 04:55:13;;;;;;;6.17;5.97;;;18.10;99.90;;;;;;5022693;28;20458;-67
2023/07/28 04:57:40;;;;;;;7.70;7.40;;;18.00;99.90;;;;;;5024795;28;20465;-66
2023/07/28 05:00:10;;;;;;;8.90;8.40;;;18.10;99.90;;;;;;5027492;28;20932;-67
2023/07/28 05:02:36;;;;;;;6.50;6.30;;;18.20;99.90;;;;;;5016962;28;20489;-69
2023/07/28 05:05:03;;;;;;;6.70;6.50;;;18.20;99.90;;;;;;5024738;28;20464;-70
2023/07/28 05:07:30;;;;;;;6.50;6.30;;;18.20;99.90;;;;;;5015860;28;20468;-70
2023/07/28 05:09:57;;;;;;;7.10;6.90;;;18.20;99.90;;;;;;5025316;28;20485;-68
2023/07/28 05:12:25;;;;;;;9.37;8.80;;;18.20;99.90;;;;;;5026323;28;20461;-69
2023/07/28 05:14:52;;;;;;;8.03;7.73;;;18.30;99.90;;;;;;5024171;28;20860;-66
2023/07/28 05:17:19;;;;;;;8.23;7.73;;;18.20;99.90;;;;;;5022552;28;20828;-67
2023/07/28 05:19:47;;;;;;;6.50;6.30;;;18.20;99.90;;;;;;5020644;28;20461;-69
2023/07/28 05:22:13;;;;;;;7.87;7.50;;;18.20;99.90;;;;;;5017935;28;20820;-68
2023/07/28 05:24:40;;;;;;;7.47;7.17;;;18.30;99.90;;;;;;5024289;28;20460;-67
2023/07/28 05:27:08;;;;;;;10.23;9.57;;;18.30;99.90;;;;;;5025894;28;20465;-67
2023/07/28 05:29:36;;;;;;;8.77;8.10;;;18.40;99.90;;;;;;5026251;28;20563;-67
2023/07/28 05:32:04;;;;;;;7.07;6.77;;;18.40;99.90;;;;;;5029609;28;20460;-67
2023/07/28 05:34:31;;;;;;;7.83;7.53;;;18.30;99.90;;;;;;5019563;28;20476;-68
2023/07/28 05:36:58;;;;;;;7.50;7.20;;;18.30;99.90;;;;;;5019361;28;20552;-67
2023/07/28 05:39:25;;;;;;;6.97;6.77;;;18.40;99.90;;;;;;5027984;28;20956;-67
2023/07/28 05:41:52;;;;;;;6.70;6.50;;;18.40;99.90;;;;;;5030792;28;20469;-67
2023/07/28 05:44:19;;;;;;;6.63;6.43;;;18.40;99.90;;;;;;5024537;28;20468;-68
2023/07/28 05:46:48;;;;;;;6.60;6.40;;;18.40;99.90;;;;;;5027172;28;20858;-68
2023/07/28 05:49:15;;;;;;;6.70;6.50;;;18.30;99.90;;;;;;5022495;28;20487;-67
2023/07/28 05:51:42;;;;;;;7.37;7.17;;;18.40;99.90;;;;;;5027266;28;20465;-67
2023/07/28 05:54:10;;;;;;;7.73;7.43;;;18.50;99.90;;;;;;5025876;28;20878;-68
2023/07/28 05:56:36;;;;;;;7.33;7.13;;;18.40;99.90;;;;;;5030146;28;20461;-67
2023/07/28 05:59:04;;;;;;;8.40;8.10;;;18.40;99.90;;;;;;5027996;28;20452;-69
2023/07/28 06:01:33;;;;;;;7.20;7.00;;;18.50;99.90;;;;;;5028771;28;20488;-68
2023/07/28 06:04:02;;;;;;;8.07;7.67;;;18.50;99.90;;;;;;5017131;28;20535;-67
2023/07/28 06:06:29;;;;;;;7.63;7.43;;;18.60;99.90;;;;;;5018097;28;20457;-68
2023/07/28 06:08:56;;;;;;;7.30;7.10;;;18.60;99.90;;;;;;5023915;28;21013;-67
2023/07/28 06:11:24;;;;;;;9.03;8.73;;;18.60;99.90;;;;;;5025581;28;20464;-70
2023/07/28 06:13:51;;;;;;;7.80;7.40;;;18.60;99.90;;;;;;5024509;28;20487;-67
2023/07/28 06:16:18;;;;;;;7.30;7.10;;;18.60;99.90;;;;;;5023238;28;20484;-67
2023/07/28 06:18:45;;;;;;;7.90;7.60;;;18.60;99.90;;;;;;5022709;28;20464;-66
2023/07/28 06:21:14;;;;;;;7.87;7.67;;;18.70;99.90;;;;;;5026258;28;20897;-69
2023/07/28 06:23:41;;;;;;;7.30;7.10;;;18.60;99.90;;;;;;5023137;28;20468;-67
2023/07/28 06:26:09;;;;;;;7.73;7.43;;;18.60;99.90;;;;;;5020854;28;20556;-67
2023/07/28 06:28:37;;;;;;;7.90;7.60;;;18.70;99.90;;;;;;5029113;28;20532;-67
2023/07/28 06:31:04;;;;;;;7.83;7.40;;;18.60;99.90;;;;;;5027110;28;20501;-68
2023/07/28 06:33:31;;;;;;;8.00;7.50;;;18.60;99.90;;;;;;5028944;28;20782;-68
2023/07/28 06:35:58;;;;;;;6.93;6.73;;;18.60;99.90;;;;;;5026641;28;20869;-67
2023/07/28 06:38:28;;;;;;;6.77;6.57;;;18.60;99.90;;;;;;5027225;28;20453;-70
2023/07/28 06:40:55;;;;;;;6.90;6.70;;;18.60;99.90;;;;;;5015375;28;20511;-67
2023/07/28 06:43:23;;;;;;;7.83;7.53;;;18.60;99.90;;;;;;5017371;28;20501;-68
2023/07/28 06:45:52;;;;;;;7.80;7.43;;;18.60;99.90;;;;;;5028831;28;20460;-66
2023/07/28 06:48:19;;;;;;;6.90;6.70;;;18.60;99.90;;;;;;5028109;28;20543;-67
2023/07/28 06:50:46;;;;;;;7.03;6.80;;;18.60;99.90;;;;;;5024664;28;20571;-67
2023/07/28 06:53:13;;;;;;;7.77;7.47;;;18.70;99.90;;;;;;5029357;28;20863;-69
2023/07/28 06:55:41;;;;;;;7.10;6.90;;;18.70;99.90;;;;;;5022300;28;20875;-68
2023/07/28 06:58:09;;;;;;;8.40;8.10;;;18.70;99.90;;;;;;5026223;28;20460;-69
2023/07/28 07:00:36;;;;;;;7.00;6.80;;;18.80;99.90;;;;;;5022518;28;20924;-68
2023/07/28 07:03:03;;;;;;;7.30;7.10;;;18.80;99.90;;;;;;5025650;28;20473;-68
2023/07/28 07:05:32;;;;;;;8.30;7.90;;;18.80;99.90;;;;;;5022739;28;20547;-66
2023/07/28 07:07:58;;;;;;;8.40;7.70;;;18.80;99.90;;;;;;5028542;28;20472;-68
2023/07/28 07:10:26;;;;;;;6.63;6.40;;;18.80;99.90;;;;;;5025717;28;20511;-67
2023/07/28 07:12:56;;;;;;;6.30;6.10;;;18.60;99.90;;;;;;5026763;28;20475;-66
2023/07/28 07:15:23;;;;;;;6.30;6.10;;;18.70;99.90;;;;;;5016062;28;20505;-70
2023/07/28 07:17:49;;;;;;;6.43;6.13;;;18.80;99.90;;;;;;5008071;28;20952;-70
2023/07/28 07:20:16;;;;;;;6.40;6.20;;;18.80;99.90;;;;;;5005120;28;20542;-67
2023/07/28 07:22:43;;;;;;;6.40;6.20;;;18.90;99.90;;;;;;5010802;28;20809;-69
2023/07/28 07:25:10;;;;;;;8.73;8.37;;;19.00;99.90;;;;;;5015807;28;20510;-67
2023/07/28 07:27:37;;;;;;;6.63;6.33;;;19.00;99.90;;;;;;5007281;28;20539;-67
2023/07/28 07:30:08;;;;;;;7.50;7.17;;;19.00;99.90;;;;;;5014952;28;20500;-70
2023/07/28 07:32:35;;;;;;;7.70;7.20;;;19.10;99.90;;;;;;5000494;28;20553;-70
2023/07/28 07:35:02;;;;;;;6.10;5.90;;;19.10;99.90;;;;;;5008188;28;20980;-67
2023/07/28 07:37:31;;;;;;;5.93;5.73;;;19.10;99.90;;;;;;5014426;28;20461;-70
2023/07/28 07:40:00;;;;;;;4.47;4.37;;;19.10;99.90;;;;;;5006257;28;20473;-68
2023/07/28 07:42:26;;;;;;;5.20;5.00;;;19.10;99.90;;;;;;5014030;28;20472;-68
2023/07/28 07:44:53;;;;;;;5.30;5.10;;;19.10;99.90;;;;;;5005461;28;20822;-67
2023/07/28 07:47:22;;;;;;;22.40;6.27;;;19.20;99.90;;;;;;5001740;28;20466;-68
2023/07/28 07:49:49;;;;;;;4.93;4.73;;;19.20;99.90;;;;;;5011210;28;20497;-67
2023/07/28 07:52:15;;;;;;;4.53;4.43;;;19.20;99.90;;;;;;5010020;28;20564;-67
2023/07/28 07:54:43;;;;;;;4.90;4.70;;;19.20;99.90;;;;;;5011353;28;20464;-70
2023/07/28 07:57:11;;;;;;;4.60;4.50;;;19.20;99.90;;;;;;5016173;28;20458;-69
2023/07/28 07:59:38;;;;;;;4.10;4.00;;;19.20;99.90;;;;;;5002906;28;20464;-67
2023/07/28 08:02:05;;;;;;;4.73;4.63;;;19.30;99.90;;;;;;5012834;28;20486;-67
2023/07/28 08:04:34;;;;;;;4.33;4.23;;;19.40;99.90;;;;;;5006804;28;20466;-70
2023/07/28 08:07:04;;;;;;;4.90;4.73;;;19.60;99.90;;;;;;5011778;28;20476;-67
2023/07/28 08:09:31;;;;;;;5.00;4.90;;;19.70;99.90;;;;;;4987737;28;21413;-67
2023/07/28 08:11:58;;;;;;;5.07;4.93;;;19.70;99.90;;;;;;5000360;28;20512;-68
2023/07/28 08:14:25;;;;;;;5.80;5.60;;;19.80;99.90;;;;;;5013173;28;20478;-70
2023/07/28 08:16:53;;;;;;;6.70;6.30;;;19.90;99.90;;;;;;5021813;28;20476;-70
2023/07/28 08:19:20;;;;;;;5.53;5.33;;;19.90;99.90;;;;;;5023722;28;20473;-67
2023/07/28 08:21:48;;;;;;;6.07;5.87;;;19.80;99.90;;;;;;5020577;28;20779;-69
2023/07/28 08:24:15;;;;;;;6.13;5.93;;;20.00;99.90;;;;;;5020396;28;21344;-68
2023/07/28 08:26:43;;;;;;;5.27;5.17;;;20.10;99.90;;;;;;5019768;28;20748;-69
2023/07/28 08:29:12;;;;;;;6.47;6.23;;;20.20;99.90;;;;;;5025059;28;20496;-68
2023/07/28 08:31:41;;;;;;;6.80;6.50;;;20.40;99.90;;;;;;5025186;28;20492;-70
2023/07/28 08:34:10;;;;;;;6.30;6.10;;;20.50;99.90;;;;;;5024470;28;20549;-69
2023/07/28 08:36:39;;;;;;;5.50;5.40;;;20.50;99.90;;;;;;5022939;28;20460;-70
2023/07/28 08:39:10;;;;;;;6.43;6.13;;;20.50;99.90;;;;;;5025267;28;20463;-70
2023/07/28 08:41:38;;;;;;;6.97;6.70;;;20.60;99.90;;;;;;5018164;28;20887;-66
2023/07/28 08:44:05;;;;;;;5.57;5.47;;;20.50;99.90;;;;;;5024749;28;20959;-67
2023/07/28 08:46:38;;;;;;;5.90;5.70;;;20.60;99.90;;;;;;5020626;28;20474;-67
2023/07/28 08:49:05;;;;;;;6.57;6.30;;;20.90;99.90;;;;;;5024453;28;20468;-68
2023/07/28 08:51:32;;;;;;;5.90;5.70;;;21.20;99.90;;;;;;5020611;28;20499;-68
2023/07/28 08:54:01;;;;;;;7.37;7.07;;;21.30;99.90;;;;;;5018462;28;20839;-68
2023/07/28 08:56:29;;;;;;;6.80;6.60;;;21.50;99.90;;;;;;5025535;28;20473;-68
2023/07/28 08:59:01;;;;;;;7.97;7.67;;;21.80;99.90;;;;;;5022846;28;20456;-68
2023/07/28 09:01:28;;;;;;;8.70;8.33;;;22.10;99.90;;;;;;5024447;28;20951;-67
2023/07/28 09:03:55;;;;;;;8.40;8.10;;;22.30;99.90;;;;;;5023271;28;20575;-68
2023/07/28 09:06:30;;;;;;;8.70;8.40;;;22.40;99.90;;;;;;5024508;28;20465;-68
2023/07/28 09:09:00;;;;;;;7.50;7.30;;;22.30;99.90;;;;;;5019901;28;20464;-70
2023/07/28 09:11:29;;;;;;;8.97;8.57;;;22.50;99.90;;;;;;5028859;28;20494;-69
2023/07/28 09:13:56;;;;;;;8.50;8.20;;;22.90;99.90;;;;;;5026895;28;20885;-69
2023/07/28 09:16:26;;;;;;;9.50;9.10;;;23.10;99.90;;;;;;5029433;28;20492;-69
2023/07/28 09:19:05;;;;;;;9.63;9.23;;;23.00;99.90;;;;;;5023038;28;20476;-67
2023/07/28 09:21:33;;;;;;;10.53;10.13;;;23.50;99.90;;;;;;5031167;28;20563;-67
2023/07/28 09:24:07;;;;;;;10.60;10.10;;;24.10;99.90;;;;;;5021637;28;20522;-70
2023/07/28 09:26:42;;;;;;;12.13;11.40;;;24.70;99.90;;;;;;5029306;28;20577;-68
2023/07/28 09:29:15;;;;;;;13.00;12.50;;;24.60;99.90;;;;;;5028699;28;20563;-67
2023/07/28 09:31:44;;;;;;;13.50;12.90;;;24.20;99.90;;;;;;5023242;28;20773;-67
2023/07/28 09:34:14;;;;;;;13.83;13.23;;;23.80;99.90;;;;;;5027221;28;20457;-67
2023/07/28 09:36:41;;;;;;;12.47;11.97;;;23.50;99.90;;;;;;5024627;28;21042;-67
2023/07/28 09:39:09;;;;;;;10.20;9.80;;;23.20;99.90;;;;;;5021363;28;20889;-66
2023/07/28 09:41:37;;;;;;;8.50;8.20;;;23.10;99.90;;;;;;5025955;28;20461;-67
2023/07/28 09:44:06;;;;;;;6.17;5.77;;;22.80;99.90;;;;;;5029021;28;20456;-66
2023/07/28 09:46:36;;;;;;;6.30;6.10;;;23.00;99.90;;;;;;5024354;28;20463;-69
2023/07/28 09:49:06;;;;;;;7.80;7.60;;;22.80;99.90;;;;;;5021718;28;20475;-67
2023/07/28 09:51:35;;;;;;;9.57;9.27;;;23.10;99.90;;;;;;5022332;28;20595;-69
2023/07/28 09:54:06;;;;;;;10.70;10.20;;;23.20;99.90;;;;;;5028084;28;20457;-68
2023/07/28 09:56:34;;;;;;;9.77;9.47;;;23.50;99.90;;;;;;5028034;28;20457;-68
2023/07/28 09:59:09;;;;;;;8.80;8.50;;;23.50;99.90;;;;;;5027776;28;20461;-67
2023/07/28 10:01:36;;;;;;;9.17;8.87;;;23.30;99.90;;;;;;5018882;28;20457;-68
2023/07/28 10:04:04;;;;;;;8.37;8.07;;;23.10;99.90;;;;;;5022442;28;20489;-69
2023/07/28 10:06:33;;;;;;;7.53;7.27;;;23.00;99.90;;;;;;5025510;28;20848;-67
2023/07/28 10:09:00;;;;;;;11.53;8.70;;;22.70;99.90;;;;;;5018359;28;20464;-68
2023/07/28 10:11:28;;;;;;;9.30;8.90;;;22.60;99.90;;;;;;5023247;28;21912;-69
2023/07/28 10:13:57;;;;;;;8.50;8.20;;;22.80;99.90;;;;;;5025973;28;20497;-68
2023/07/28 10:16:38;;;;;;;8.83;8.53;;;23.20;99.90;;;;;;5027395;28;20547;-69
2023/07/28 10:19:06;;;;;;;10.60;10.20;;;23.70;99.90;;;;;;5023215;28;20456;-68
2023/07/28 10:21:40;;;;;;;12.03;11.53;;;23.90;99.90;;;;;;5027371;28;20479;-68
2023/07/28 10:24:08;;;;;;;12.60;11.90;;;24.00;99.90;;;;;;5022799;28;20486;-69
2023/07/28 10:26:41;;;;;;;12.50;12.00;;;24.10;99.90;;;;;;5017702;28;20511;-66
2023/07/28 10:29:12;;;;;;;12.43;11.93;;;24.30;99.90;;;;;;5024636;28;20497;-67
2023/07/28 10:31:50;;;;;;;12.13;11.63;;;24.70;99.90;;;;;;5021675;28;20584;-68
2023/07/28 10:34:18;;;;;;;12.67;12.17;;;25.10;99.90;;;;;;5025877;28;20463;-69
2023/07/28 10:36:46;;;;;;;13.73;13.13;;;26.30;99.90;;;;;;5025870;28;20464;-67
2023/07/28 10:39:17;;;;;;;13.80;13.20;;;26.90;99.90;;;;;;5027778;28;21087;-67
2023/07/28 10:42:03;;;;;;;14.20;13.60;;;27.10;99.90;;;;;;5023067;28;20469;-70
2023/07/28 10:44:30;;;;;;;14.37;13.57;;;27.10;99.90;;;;;;5021580;28;20579;-70
2023/07/28 10:46:58;;;;;;;13.80;13.20;;;26.30;99.90;;;;;;5024080;28;20485;-67
2023/07/28 10:49:26;;;;;;;14.27;13.30;;;25.70;99.90;;;;;;5027556;28;20577;-66
2023/07/28 10:51:53;;;;;;;14.30;13.60;;;25.30;99.90;;;;;;5027681;28;20591;-67
2023/07/28 10:54:21;;;;;;;11.90;11.40;;;24.60;99.90;;;;;;5025575;28;20948;-68
2023/07/28 10:56:49;;;;;;;9.80;9.50;;;24.30;99.90;;;;;;5019663;28;20460;-68
2023/07/28 10:59:16;;;;;;;6.53;6.33;;;24.20;99.90;;;;;;5021659;28;20465;-68
2023/07/28 11:01:45;;;;;;;6.97;6.77;;;24.60;99.90;;;;;;5024834;28;20600;-67
2023/07/28 11:04:16;;;;;;;8.67;8.37;;;25.20;99.90;;;;;;5025154;28;20660;-68
2023/07/28 11:06:46;;;;;;;13.30;12.70;;;26.50;99.90;;;;;;5026527;28;20465;-69
2023/07/28 11:09:15;;;;;;;13.57;12.97;;;27.20;99.90;;;;;;5018879;28;20539;-69
2023/07/28 11:11:43;;;;;;;14.37;13.77;;;27.20;99.90;;;;;;5024394;28;20510;-68
2023/07/28 11:14:11;;;;;;;14.20;13.60;;;26.80;99.90;;;;;;5022445;28;20853;-67
2023/07/28 11:16:40;;;;;;;13.77;13.27;;;26.50;99.90;;;;;;5019315;28;20485;-70
2023/07/28 11:19:10;;;;;;;13.83;13.33;;;26.50;99.90;;;;;;5024994;28;20463;-67
2023/07/28 11:21:39;;;;;;;14.10;13.50;;;26.50;99.90;;;;;;5023350;28;20464;-68
2023/07/28 11:24:09;;;;;;;13.90;13.30;;;26.60;99.90;;;;;;5020758;28;20493;-68
2023/07/28 11:26:38;;;;;;;14.10;13.43;;;26.70;99.90;;;;;;5023915;28;20461;-69
2023/07/28 11:29:05;;;;;;;14.43;13.83;;;26.40;99.90;;;;;;5021568;28;20655;-70
2023/07/28 11:31:35;;;;;;;14.03;13.43;;;26.20;99.90;;;;;;5025189;28;20480;-67
2023/07/28 11:34:02;;;;;;;14.83;14.13;;;26.30;99.90;;;;;;5022891;28;20544;-68
2023/07/28 11:36:31;;;;;;;13.90;13.30;;;26.30;99.90;;;;;;5021476;28;20496;-70
2023/07/28 11:39:05;;;;;;;13.80;13.20;;;26.40;99.90;;;;;;5022917;28;20469;-69
2023/07/28 11:41:33;;;;;;;14.20;13.50;;;26.50;99.90;;;;;;5020378;28;20794;-70
2023/07/28 11:44:03;;;;;;;13.30;12.80;;;26.20;99.90;;;;;;5025551;28;20457;-68
2023/07/28 11:46:37;;;;;;;13.43;12.93;;;26.20;99.90;;;;;;5023806;28;20463;-70
2023/07/28 11:49:12;;;;;;;14.30;13.70;;;27.10;99.90;;;;;;5017669;28;20467;-70
2023/07/28 11:51:43;;;;;;;14.43;13.83;;;27.40;99.90;;;;;;5023637;28;20484;-68
2023/07/28 11:54:13;;;;;;;13.97;13.40;;;27.40;99.90;;;;;;5014917;28;20464;-68
2023/07/28 11:56:40;;;;;;;14.30;13.70;;;27.20;99.90;;;;;;5025605;28;20464;-69
2023/07/28 11:59:07;;;;;;;14.37;13.77;;;27.30;99.90;;;;;;5025950;28;20507;-69
2023/07/28 12:01:34;;;;;;;14.03;13.43;;;27.50;99.90;;;;;;5022219;28;20546;-68
2023/07/28 12:04:26;;;;;;;13.80;13.27;;;27.50;99.90;;;;;;5025879;28;20570;-69
2023/07/28 12:07:07;;;;;;;14.20;13.60;;;28.20;99.90;;;;;;5016175;28;20500;-70
2023/07/28 12:09:50;;;;;;;15.17;14.47;;;27.90;99.90;;;;;;5014397;28;20468;-70
2023/07/28 12:12:19;;;;;;;14.60;14.00;;;27.60;99.90;;;;;;5017898;28;20531;-70
2023/07/28 12:14:46;;;;;;;14.33;13.73;;;27.10;99.90;;;;;;5005627;28;20491;-69
2023/07/28 12:17:14;;;;;;;13.90;13.40;;;26.60;99.90;;;;;;5024591;28;20469;-69
2023/07/28 12:19:43;;;;;;;15.50;14.80;;;26.10;99.90;;;;;;5026637;28;20532;-70
2023/07/28 12:22:11;;;;;;;17.37;16.47;;;25.30;99.90;;;;;;5022278;28;20469;-68
2023/07/28 12:24:39;;;;;;;23.13;21.30;;;24.60;99.90;;;;;;5026550;28;20456;-69
2023/07/28 12:27:13;;;;;;;17.63;16.63;;;23.50;99.90;;;;;;5019436;28;20564;-70
2023/07/28 12:29:39;;;;;;;13.30;12.70;;;22.20;99.90;;;;;;5018190;28;20470;-72
2023/07/28 12:32:07;;;;;;;13.90;13.30;;;21.40;99.90;;;;;;5019810;28;20495;-71
2023/07/28 12:34:35;;;;;;;14.70;14.10;;;21.00;99.90;;;;;;5022398;28;20500;-69
2023/07/28 12:37:02;;;;;;;11.43;11.03;;;20.90;99.90;;;;;;5025278;28;20488;-71
2023/07/28 12:39:29;;;;;;;9.83;9.53;;;20.60;99.90;;;;;;5018959;28;20467;-71
2023/07/28 12:41:58;;;;;;;9.30;9.00;;;20.60;99.90;;;;;;5028150;28;20460;-70
2023/07/28 12:44:25;;;;;;;9.73;9.43;;;20.60;99.90;;;;;;5029750;28;20821;-67
2023/07/28 12:46:53;;;;;;;9.23;8.93;;;20.50;99.90;;;;;;5021829;28;20927;-69
2023/07/28 12:49:20;;;;;;;7.47;7.37;;;20.50;99.90;;;;;;5029127;28;20467;-70